sensor_id;sensor_type;location;lat;lon;timestamp;temperature;humidity
70456;DHT22;57916;51.996;5.180;2023-07-29T00:01:57;22.50;70.80
70456;DHT22;57916;51.996;5.180;2023-07-29T00:04:24;22.50;70.70
70456;DHT22;57916;51.996;5.180;2023-07-29T00:06:51;22.50;70.80
70456;DHT22;57916;51.996;5.180;2023-07-29T00:09:19;22.50;70.90
70456;DHT22;57916;51.996;5.180;2023-07-29T00:11:46;22.50;71.80
70456;DHT22;57916;51.996;5.180;2023-07-29T00:14:13;22.50;71.20
70456;DHT22;57916;51.996;5.180;2023-07-29T00:16:40;22.50;71.30
70456;DHT22;57916;51.996;5.180;2023-07-29T00:19:08;22.60;71.40
70456;DHT22;57916;51.996;5.180;2023-07-29T00:21:35;22.60;71.40
70456;DHT22;57916;51.996;5.180;2023-07-29T00:24:02;22.70;71.40
70456;DHT22;57916;51.996;5.180;2023-07-29T00:26:29;22.70;71.10
70456;DHT22;57916;51.996;5.180;2023-07-29T00:28:58;22.60;71.00
70456;DHT22;57916;51.996;5.180;2023-07-29T00:31:25;22.60;71.00
70456;DHT22;57916;51.996;5.180;2023-07-29T00:33:51;22.60;71.10
70456;DHT22;57916;51.996;5.180;2023-07-29T00:36:19;22.50;71.40
70456;DHT22;57916;51.996;5.180;2023-07-29T00:38:47;22.40;71.60
70456;DHT22;57916;51.996;5.180;2023-07-29T00:41:15;22.40;71.90
70456;DHT22;57916;51.996;5.180;2023-07-29T00:43:42;22.30;72.20
70456;DHT22;57916;51.996;5.180;2023-07-29T00:46:09;22.30;72.40
70456;DHT22;57916;51.996;5.180;2023-07-29T00:48:41;22.20;72.60
70456;DHT22;57916;51.996;5.180;2023-07-29T00:51:08;22.20;72.90
70456;DHT22;57916;51.996;5.180;2023-07-29T00:53:36;22.20;73.00
70456;DHT22;57916;51.996;5.180;2023-07-29T00:56:03;22.10;72.90
70456;DHT22;57916;51.996;5.180;2023-07-29T00:58:30;22.20;73.10
70456;DHT22;57916;51.996;5.180;2023-07-29T01:00:57;22.10;73.00
70456;DHT22;57916;51.996;5.180;2023-07-29T01:03:25;22.10;73.10
70456;DHT22;57916;51.996;5.180;2023-07-29T01:07:03;22.10;73.30
70456;DHT22;57916;51.996;5.180;2023-07-29T01:09:07;22.00;73.50
70456;DHT22;57916;51.996;5.180;2023-07-29T01:11:54;22.00;73.50
70456;DHT22;57916;51.996;5.180;2023-07-29T01:14:46;21.90;73.70
70456;DHT22;57916;51.996;5.180;2023-07-29T01:17:22;21.90;74.00
70456;DHT22;57916;51.996;5.180;2023-07-29T01:22:27;22.00;74.40
70456;DHT22;57916;51.996;5.180;2023-07-29T01:24:54;22.00;74.40
70456;DHT22;57916;51.996;5.180;2023-07-29T01:27:24;22.00;74.60
70456;DHT22;57916;51.996;5.180;2023-07-29T01:29:52;21.90;74.30
70456;DHT22;57916;51.996;5.180;2023-07-29T01:35:34;21.80;74.20
70456;DHT22;57916;51.996;5.180;2023-07-29T01:38:12;21.70;74.50
70456;DHT22;57916;51.996;5.180;2023-07-29T01:40:40;21.70;74.70
70456;DHT22;57916;51.996;5.180;2023-07-29T01:43:07;21.70;75.00
70456;DHT22;57916;51.996;5.180;2023-07-29T01:45:35;21.70;75.20
70456;DHT22;57916;51.996;5.180;2023-07-29T01:48:05;21.70;75.60
70456;DHT22;57916;51.996;5.180;2023-07-29T01:50:36;21.70;75.80
70456;DHT22;57916;51.996;5.180;2023-07-29T01:53:04;21.80;76.00
70456;DHT22;57916;51.996;5.180;2023-07-29T01:55:31;21.80;76.20
70456;DHT22;57916;51.996;5.180;2023-07-29T01:57:58;21.80;76.20
70456;DHT22;57916;51.996;5.180;2023-07-29T02:00:26;21.80;76.10
70456;DHT22;57916;51.996;5.180;2023-07-29T02:02:53;21.80;76.10
70456;DHT22;57916;51.996;5.180;2023-07-29T02:05:20;21.80;76.00
70456;DHT22;57916;51.996;5.180;2023-07-29T02:07:47;21.80;76.00
70456;DHT22;57916;51.996;5.180;2023-07-29T02:10:15;21.70;75.90
70456;DHT22;57916;51.996;5.180;2023-07-29T02:12:42;21.70;75.90
70456;DHT22;57916;51.996;5.180;2023-07-29T02:15:09;21.70;75.90
70456;DHT22;57916;51.996;5.180;2023-07-29T02:17:36;21.70;76.00
70456;DHT22;57916;51.996;5.180;2023-07-29T02:20:04;21.70;76.00
70456;DHT22;57916;51.996;5.180;2023-07-29T02:22:32;21.70;75.90
70456;DHT22;57916;51.996;5.180;2023-07-29T02:24:59;21.70;75.70
70456;DHT22;57916;51.996;5.180;2023-07-29T02:27:26;21.60;76.20
70456;DHT22;57916;51.996;5.180;2023-07-29T02:29:56;21.50;75.60
70456;DHT22;57916;51.996;5.180;2023-07-29T02:32:23;21.50;75.50
70456;DHT22;57916;51.996;5.180;2023-07-29T02:34:51;21.50;75.50
70456;DHT22;57916;51.996;5.180;2023-07-29T02:37:18;21.50;75.40
70456;DHT22;57916;51.996;5.180;2023-07-29T02:39:45;21.50;75.30
70456;DHT22;57916;51.996;5.180;2023-07-29T02:42:12;21.50;75.20
70456;DHT22;57916;51.996;5.180;2023-07-29T02:44:40;21.40;75.10
70456;DHT22;57916;51.996;5.180;2023-07-29T02:47:07;21.40;75.00
70456;DHT22;57916;51.996;5.180;2023-07-29T02:49:34;21.40;75.00
70456;DHT22;57916;51.996;5.180;2023-07-29T02:52:01;21.30;75.10
70456;DHT22;57916;51.996;5.180;2023-07-29T02:54:29;21.30;75.10
70456;DHT22;57916;51.996;5.180;2023-07-29T02:56:56;21.30;74.90
70456;DHT22;57916;51.996;5.180;2023-07-29T02:59:23;21.30;74.90
70456;DHT22;57916;51.996;5.180;2023-07-29T03:01:50;21.20;74.90
70456;DHT22;57916;51.996;5.180;2023-07-29T03:04:17;21.20;75.00
70456;DHT22;57916;51.996;5.180;2023-07-29T03:06:44;21.20;74.90
70456;DHT22;57916;51.996;5.180;2023-07-29T03:09:11;21.30;74.80
70456;DHT22;57916;51.996;5.180;2023-07-29T03:11:38;21.20;74.70
70456;DHT22;57916;51.996;5.180;2023-07-29T03:14:05;21.20;74.60
70456;DHT22;57916;51.996;5.180;2023-07-29T03:16:32;21.20;74.60
70456;DHT22;57916;51.996;5.180;2023-07-29T03:19:00;21.30;74.60
70456;DHT22;57916;51.996;5.180;2023-07-29T03:21:27;21.20;74.50
70456;DHT22;57916;51.996;5.180;2023-07-29T03:23:54;21.20;74.50
70456;DHT22;57916;51.996;5.180;2023-07-29T03:26:21;21.20;74.30
70456;DHT22;57916;51.996;5.180;2023-07-29T03:28:48;21.10;74.10
70456;DHT22;57916;51.996;5.180;2023-07-29T03:31:15;21.10;74.20
70456;DHT22;57916;51.996;5.180;2023-07-29T03:33:43;21.00;74.30
70456;DHT22;57916;51.996;5.180;2023-07-29T03:36:10;21.10;74.40
70456;DHT22;57916;51.996;5.180;2023-07-29T03:38:37;21.10;74.20
70456;DHT22;57916;51.996;5.180;2023-07-29T03:41:08;21.10;73.80
70456;DHT22;57916;51.996;5.180;2023-07-29T03:43:35;21.10;73.60
70456;DHT22;57916;51.996;5.180;2023-07-29T03:46:02;21.00;73.50
70456;DHT22;57916;51.996;5.180;2023-07-29T03:48:30;21.00;73.30
70456;DHT22;57916;51.996;5.180;2023-07-29T03:50:58;21.00;73.20
70456;DHT22;57916;51.996;5.180;2023-07-29T03:53:25;20.90;73.20
70456;DHT22;57916;51.996;5.180;2023-07-29T03:55:52;20.90;73.20
70456;DHT22;57916;51.996;5.180;2023-07-29T03:58:20;20.90;73.20
70456;DHT22;57916;51.996;5.180;2023-07-29T04:00:46;20.90;73.20
70456;DHT22;57916;51.996;5.180;2023-07-29T04:03:14;20.90;73.20
70456;DHT22;57916;51.996;5.180;2023-07-29T04:05:41;20.90;73.20
70456;DHT22;57916;51.996;5.180;2023-07-29T04:08:08;20.80;73.10
70456;DHT22;57916;51.996;5.180;2023-07-29T04:10:35;20.80;73.10
70456;DHT22;57916;51.996;5.180;2023-07-29T04:13:04;20.80;73.20
70456;DHT22;57916;51.996;5.180;2023-07-29T04:15:32;20.80;73.20
70456;DHT22;57916;51.996;5.180;2023-07-29T04:17:59;20.80;73.30
70456;DHT22;57916;51.996;5.180;2023-07-29T04:20:26;20.90;73.30
70456;DHT22;57916;51.996;5.180;2023-07-29T04:22:53;20.90;73.10
70456;DHT22;57916;51.996;5.180;2023-07-29T04:25:20;21.00;73.00
70456;DHT22;57916;51.996;5.180;2023-07-29T04:27:47;21.00;72.90
70456;DHT22;57916;51.996;5.180;2023-07-29T04:30:14;21.00;72.60
70456;DHT22;57916;51.996;5.180;2023-07-29T04:32:42;21.10;72.60
70456;DHT22;57916;51.996;5.180;2023-07-29T04:35:09;21.00;72.60
70456;DHT22;57916;51.996;5.180;2023-07-29T04:37:36;21.00;72.60
70456;DHT22;57916;51.996;5.180;2023-07-29T04:40:03;21.00;72.60
70456;DHT22;57916;51.996;5.180;2023-07-29T04:42:31;20.90;72.80
70456;DHT22;57916;51.996;5.180;2023-07-29T04:44:58;20.90;72.80
70456;DHT22;57916;51.996;5.180;2023-07-29T04:47:25;20.90;72.90
70456;DHT22;57916;51.996;5.180;2023-07-29T04:49:54;20.80;73.10
70456;DHT22;57916;51.996;5.180;2023-07-29T04:52:21;20.80;73.30
70456;DHT22;57916;51.996;5.180;2023-07-29T04:54:48;20.70;73.60
70456;DHT22;57916;51.996;5.180;2023-07-29T04:57:17;20.70;73.70
70456;DHT22;57916;51.996;5.180;2023-07-29T04:59:44;20.70;74.00
70456;DHT22;57916;51.996;5.180;2023-07-29T05:02:11;20.70;74.20
70456;DHT22;57916;51.996;5.180;2023-07-29T05:04:38;20.70;74.40
70456;DHT22;57916;51.996;5.180;2023-07-29T05:07:05;20.70;74.70
70456;DHT22;57916;51.996;5.180;2023-07-29T05:09:32;20.70;74.90
70456;DHT22;57916;51.996;5.180;2023-07-29T05:12:00;20.70;75.00
70456;DHT22;57916;51.996;5.180;2023-07-29T05:14:28;20.70;75.00
70456;DHT22;57916;51.996;5.180;2023-07-29T05:16:55;20.70;75.00
70456;DHT22;57916;51.996;5.180;2023-07-29T05:19:22;20.70;75.20
70456;DHT22;57916;51.996;5.180;2023-07-29T05:21:49;20.70;75.40
70456;DHT22;57916;51.996;5.180;2023-07-29T05:24:16;20.70;75.40
70456;DHT22;57916;51.996;5.180;2023-07-29T05:26:43;20.70;75.40
70456;DHT22;57916;51.996;5.180;2023-07-29T05:29:11;20.80;75.50
70456;DHT22;57916;51.996;5.180;2023-07-29T05:31:37;20.80;75.50
70456;DHT22;57916;51.996;5.180;2023-07-29T05:34:06;20.80;75.50
70456;DHT22;57916;51.996;5.180;2023-07-29T05:36:33;20.90;75.60
70456;DHT22;57916;51.996;5.180;2023-07-29T05:39:01;20.90;75.80
70456;DHT22;57916;51.996;5.180;2023-07-29T05:41:28;20.90;75.80
70456;DHT22;57916;51.996;5.180;2023-07-29T05:43:56;20.90;76.00
70456;DHT22;57916;51.996;5.180;2023-07-29T05:46:23;21.00;76.00
70456;DHT22;57916;51.996;5.180;2023-07-29T05:48:50;21.00;76.00
70456;DHT22;57916;51.996;5.180;2023-07-29T05:51:17;21.00;76.00
70456;DHT22;57916;51.996;5.180;2023-07-29T05:53:44;21.10;75.90
70456;DHT22;57916;51.996;5.180;2023-07-29T05:56:11;21.10;75.90
70456;DHT22;57916;51.996;5.180;2023-07-29T05:58:38;21.10;75.80
70456;DHT22;57916;51.996;5.180;2023-07-29T06:01:06;21.10;75.80
70456;DHT22;57916;51.996;5.180;2023-07-29T06:03:33;21.20;76.00
70456;DHT22;57916;51.996;5.180;2023-07-29T06:06:01;21.20;75.90
70456;DHT22;57916;51.996;5.180;2023-07-29T06:08:28;21.30;75.90
70456;DHT22;57916;51.996;5.180;2023-07-29T06:10:56;21.40;75.90
70456;DHT22;57916;51.996;5.180;2023-07-29T06:13:23;21.40;75.80
70456;DHT22;57916;51.996;5.180;2023-07-29T06:15:50;21.40;75.50
70456;DHT22;57916;51.996;5.180;2023-07-29T06:18:19;21.50;75.40
70456;DHT22;57916;51.996;5.180;2023-07-29T06:20:46;21.60;75.30
70456;DHT22;57916;51.996;5.180;2023-07-29T06:23:14;21.50;75.10
70456;DHT22;57916;51.996;5.180;2023-07-29T06:25:41;21.60;75.00
70456;DHT22;57916;51.996;5.180;2023-07-29T06:28:09;21.60;74.80
70456;DHT22;57916;51.996;5.180;2023-07-29T06:30:36;21.60;74.70
70456;DHT22;57916;51.996;5.180;2023-07-29T06:33:03;21.60;74.80
70456;DHT22;57916;51.996;5.180;2023-07-29T06:35:30;21.70;75.40
70456;DHT22;57916;51.996;5.180;2023-07-29T06:37:57;21.80;75.10
70456;DHT22;57916;51.996;5.180;2023-07-29T06:40:25;21.80;74.90
70456;DHT22;57916;51.996;5.180;2023-07-29T06:42:52;21.80;74.70
70456;DHT22;57916;51.996;5.180;2023-07-29T06:45:19;21.90;74.40
70456;DHT22;57916;51.996;5.180;2023-07-29T06:47:46;21.90;74.10
70456;DHT22;57916;51.996;5.180;2023-07-29T06:50:13;21.90;74.10
70456;DHT22;57916;51.996;5.180;2023-07-29T06:52:41;21.90;74.10
70456;DHT22;57916;51.996;5.180;2023-07-29T06:55:08;22.00;74.10
70456;DHT22;57916;51.996;5.180;2023-07-29T06:57:35;22.00;73.90
70456;DHT22;57916;51.996;5.180;2023-07-29T07:00:03;22.00;74.10
70456;DHT22;57916;51.996;5.180;2023-07-29T07:02:31;22.00;73.90
70456;DHT22;57916;51.996;5.180;2023-07-29T07:04:58;22.00;74.00
70456;DHT22;57916;51.996;5.180;2023-07-29T07:07:25;22.00;74.20
70456;DHT22;57916;51.996;5.180;2023-07-29T07:09:52;22.00;74.70
70456;DHT22;57916;51.996;5.180;2023-07-29T07:12:20;22.00;74.30
70456;DHT22;57916;51.996;5.180;2023-07-29T07:14:47;22.10;74.60
70456;DHT22;57916;51.996;5.180;2023-07-29T07:17:14;22.20;74.50
70456;DHT22;57916;51.996;5.180;2023-07-29T07:19:41;22.20;74.90
70456;DHT22;57916;51.996;5.180;2023-07-29T07:22:08;22.20;73.90
70456;DHT22;57916;51.996;5.180;2023-07-29T07:24:35;22.20;73.70
70456;DHT22;57916;51.996;5.180;2023-07-29T07:27:02;22.30;73.90
70456;DHT22;57916;51.996;5.180;2023-07-29T07:29:30;22.30;73.80
70456;DHT22;57916;51.996;5.180;2023-07-29T07:31:57;22.30;73.50
70456;DHT22;57916;51.996;5.180;2023-07-29T07:34:24;22.40;74.00
70456;DHT22;57916;51.996;5.180;2023-07-29T07:36:51;22.40;73.80
70456;DHT22;57916;51.996;5.180;2023-07-29T07:39:18;22.40;73.40
70456;DHT22;57916;51.996;5.180;2023-07-29T07:41:45;22.40;73.60
70456;DHT22;57916;51.996;5.180;2023-07-29T07:44:13;22.50;73.80
70456;DHT22;57916;51.996;5.180;2023-07-29T07:46:42;22.50;73.90
70456;DHT22;57916;51.996;5.180;2023-07-29T07:49:09;22.60;73.50
70456;DHT22;57916;51.996;5.180;2023-07-29T07:51:36;22.70;73.10
70456;DHT22;57916;51.996;5.180;2023-07-29T07:54:03;22.90;72.70
70456;DHT22;57916;51.996;5.180;2023-07-29T07:56:30;23.00;72.00
70456;DHT22;57916;51.996;5.180;2023-07-29T07:58:57;23.20;71.90
70456;DHT22;57916;51.996;5.180;2023-07-29T08:01:24;23.50;71.00
70456;DHT22;57916;51.996;5.180;2023-07-29T08:03:52;23.70;70.00
70456;DHT22;57916;51.996;5.180;2023-07-29T08:06:19;23.90;68.80
70456;DHT22;57916;51.996;5.180;2023-07-29T08:08:46;23.90;67.60
70456;DHT22;57916;51.996;5.180;2023-07-29T08:11:13;24.00;67.70
70456;DHT22;57916;51.996;5.180;2023-07-29T08:13:40;23.90;67.00
70456;DHT22;57916;51.996;5.180;2023-07-29T08:16:07;23.90;67.20
70456;DHT22;57916;51.996;5.180;2023-07-29T08:18:34;23.90;66.90
70456;DHT22;57916;51.996;5.180;2023-07-29T08:21:02;23.80;67.20
70456;DHT22;57916;51.996;5.180;2023-07-29T08:23:36;23.80;67.00
70456;DHT22;57916;51.996;5.180;2023-07-29T08:26:05;23.80;67.70
70456;DHT22;57916;51.996;5.180;2023-07-29T08:28:39;23.80;67.70
70456;DHT22;57916;51.996;5.180;2023-07-29T08:31:06;23.80;67.70
70456;DHT22;57916;51.996;5.180;2023-07-29T08:33:34;23.80;67.40
70456;DHT22;57916;51.996;5.180;2023-07-29T08:36:02;23.70;67.70
70456;DHT22;57916;51.996;5.180;2023-07-29T08:38:30;23.70;67.80
70456;DHT22;57916;51.996;5.180;2023-07-29T08:40:58;23.60;68.30
70456;DHT22;57916;51.996;5.180;2023-07-29T08:43:29;23.70;69.40
70456;DHT22;57916;51.996;5.180;2023-07-29T08:45:58;23.80;68.80
70456;DHT22;57916;51.996;5.180;2023-07-29T08:48:40;24.00;67.60
70456;DHT22;57916;51.996;5.180;2023-07-29T08:51:09;24.20;67.00
70456;DHT22;57916;51.996;5.180;2023-07-29T08:53:37;24.30;66.50
70456;DHT22;57916;51.996;5.180;2023-07-29T08:56:06;24.50;66.50
70456;DHT22;57916;51.996;5.180;2023-07-29T08:58:34;24.60;65.60
70456;DHT22;57916;51.996;5.180;2023-07-29T09:01:01;24.70;65.30
70456;DHT22;57916;51.996;5.180;2023-07-29T09:03:29;24.80;64.80
70456;DHT22;57916;51.996;5.180;2023-07-29T09:05:57;25.00;63.80
70456;DHT22;57916;51.996;5.180;2023-07-29T09:08:28;25.10;64.10
70456;DHT22;57916;51.996;5.180;2023-07-29T09:10:55;25.10;62.90
70456;DHT22;57916;51.996;5.180;2023-07-29T09:13:23;25.10;62.70
70456;DHT22;57916;51.996;5.180;2023-07-29T09:15:54;25.10;63.30
70456;DHT22;57916;51.996;5.180;2023-07-29T09:18:23;25.20;62.80
70456;DHT22;57916;51.996;5.180;2023-07-29T09:20:53;25.20;62.90
70456;DHT22;57916;51.996;5.180;2023-07-29T09:23:20;25.20;63.00
70456;DHT22;57916;51.996;5.180;2023-07-29T09:25:47;25.20;63.10
70456;DHT22;57916;51.996;5.180;2023-07-29T09:28:16;25.30;63.20
70456;DHT22;57916;51.996;5.180;2023-07-29T09:30:45;25.30;62.20
70456;DHT22;57916;51.996;5.180;2023-07-29T09:33:14;25.30;62.50
70456;DHT22;57916;51.996;5.180;2023-07-29T09:35:41;25.40;62.30
70456;DHT22;57916;51.996;5.180;2023-07-29T09:38:14;25.40;62.40
70456;DHT22;57916;51.996;5.180;2023-07-29T09:40:42;25.50;61.60
70456;DHT22;57916;51.996;5.180;2023-07-29T09:43:12;25.50;60.60
70456;DHT22;57916;51.996;5.180;2023-07-29T09:45:39;25.50;61.10
70456;DHT22;57916;51.996;5.180;2023-07-29T09:48:06;25.50;61.20
70456;DHT22;57916;51.996;5.180;2023-07-29T09:50:36;25.60;60.70
70456;DHT22;57916;51.996;5.180;2023-07-29T09:53:03;25.60;61.70
70456;DHT22;57916;51.996;5.180;2023-07-29T09:55:32;25.60;61.10
70456;DHT22;57916;51.996;5.180;2023-07-29T09:58:01;25.60;61.70
70456;DHT22;57916;51.996;5.180;2023-07-29T10:00:31;25.60;61.40
70456;DHT22;57916;51.996;5.180;2023-07-29T10:03:00;25.60;60.90
70456;DHT22;57916;51.996;5.180;2023-07-29T10:05:28;25.60;61.10
70456;DHT22;57916;51.996;5.180;2023-07-29T10:07:56;25.60;61.10
70456;DHT22;57916;51.996;5.180;2023-07-29T10:10:23;25.60;61.50
70456;DHT22;57916;51.996;5.180;2023-07-29T10:12:50;25.70;61.60
70456;DHT22;57916;51.996;5.180;2023-07-29T10:15:18;25.70;61.20
70456;DHT22;57916;51.996;5.180;2023-07-29T10:17:47;25.70;60.60
70456;DHT22;57916;51.996;5.180;2023-07-29T10:20:16;25.70;61.10
70456;DHT22;57916;51.996;5.180;2023-07-29T10:22:46;25.80;61.20
70456;DHT22;57916;51.996;5.180;2023-07-29T10:25:17;25.70;60.60
70456;DHT22;57916;51.996;5.180;2023-07-29T10:30:21;25.60;61.10
70456;DHT22;57916;51.996;5.180;2023-07-29T10:32:49;25.60;62.40
70456;DHT22;57916;51.996;5.180;2023-07-29T10:35:17;25.60;63.00
70456;DHT22;57916;51.996;5.180;2023-07-29T10:37:44;25.40;63.40
70456;DHT22;57916;51.996;5.180;2023-07-29T10:40:12;25.20;64.30
70456;DHT22;57916;51.996;5.180;2023-07-29T10:43:02;25.10;66.00
70456;DHT22;57916;51.996;5.180;2023-07-29T10:45:40;24.90;66.90
70456;DHT22;57916;51.996;5.180;2023-07-29T10:48:13;24.90;68.10
70456;DHT22;57916;51.996;5.180;2023-07-29T10:50:40;24.90;68.00
70456;DHT22;57916;51.996;5.180;2023-07-29T10:53:07;24.80;68.10
70456;DHT22;57916;51.996;5.180;2023-07-29T10:55:35;24.80;68.00
70456;DHT22;57916;51.996;5.180;2023-07-29T11:00:32;24.70;68.00
70456;DHT22;57916;51.996;5.180;2023-07-29T11:03:02;24.70;69.10
70456;DHT22;57916;51.996;5.180;2023-07-29T11:05:50;24.70;69.50
70456;DHT22;57916;51.996;5.180;2023-07-29T11:08:30;24.60;69.10
70456;DHT22;57916;51.996;5.180;2023-07-29T11:11:05;24.60;68.70
70456;DHT22;57916;51.996;5.180;2023-07-29T11:13:35;24.50;69.40
70456;DHT22;57916;51.996;5.180;2023-07-29T11:16:03;24.50;69.30
70456;DHT22;57916;51.996;5.180;2023-07-29T11:18:33;24.40;69.10
70456;DHT22;57916;51.996;5.180;2023-07-29T11:21:02;24.30;69.40
70456;DHT22;57916;51.996;5.180;2023-07-29T11:23:33;24.30;70.20
70456;DHT22;57916;51.996;5.180;2023-07-29T11:26:01;24.20;70.30
70456;DHT22;57916;51.996;5.180;2023-07-29T11:28:28;24.20;70.50
70456;DHT22;57916;51.996;5.180;2023-07-29T11:30:56;24.10;70.60
70456;DHT22;57916;51.996;5.180;2023-07-29T11:33:26;24.10;71.30
70456;DHT22;57916;51.996;5.180;2023-07-29T11:35:55;24.10;71.60
70456;DHT22;57916;51.996;5.180;2023-07-29T11:38:23;24.10;72.00
70456;DHT22;57916;51.996;5.180;2023-07-29T11:40:58;24.00;72.10
70456;DHT22;57916;51.996;5.180;2023-07-29T11:43:26;23.90;72.50
70456;DHT22;57916;51.996;5.180;2023-07-29T11:45:54;23.90;73.90
70456;DHT22;57916;51.996;5.180;2023-07-29T11:48:33;24.00;73.90
70456;DHT22;57916;51.996;5.180;2023-07-29T11:51:02;24.10;73.80
70456;DHT22;57916;51.996;5.180;2023-07-29T11:53:30;24.10;73.60
70456;DHT22;57916;51.996;5.180;2023-07-29T11:55:58;24.10;73.40
70456;DHT22;57916;51.996;5.180;2023-07-29T11:58:26;24.20;74.00
70456;DHT22;57916;51.996;5.180;2023-07-29T12:00:53;24.30;73.00
70456;DHT22;57916;51.996;5.180;2023-07-29T12:03:20;24.40;72.50
70456;DHT22;57916;51.996;5.180;2023-07-29T12:05:48;24.60;72.90
70456;DHT22;57916;51.996;5.180;2023-07-29T12:08:16;24.70;72.10
70456;DHT22;57916;51.996;5.180;2023-07-29T12:10:43;24.80;71.60
70456;DHT22;57916;51.996;5.180;2023-07-29T12:13:10;24.90;70.70
70456;DHT22;57916;51.996;5.180;2023-07-29T12:15:38;25.00;70.70
70456;DHT22;57916;51.996;5.180;2023-07-29T12:18:06;25.00;69.70
70456;DHT22;57916;51.996;5.180;2023-07-29T12:20:34;25.10;70.10
70456;DHT22;57916;51.996;5.180;2023-07-29T12:23:01;25.10;69.70
70456;DHT22;57916;51.996;5.180;2023-07-29T12:25:30;25.10;68.40
70456;DHT22;57916;51.996;5.180;2023-07-29T12:28:03;25.20;68.00
70456;DHT22;57916;51.996;5.180;2023-07-29T12:30:30;25.20;67.70
70456;DHT22;57916;51.996;5.180;2023-07-29T12:32:57;25.10;67.90
70456;DHT22;57916;51.996;5.180;2023-07-29T12:35:36;25.10;68.00
70456;DHT22;57916;51.996;5.180;2023-07-29T12:38:04;25.10;67.40
70456;DHT22;57916;51.996;5.180;2023-07-29T12:40:31;25.10;68.80
70456;DHT22;57916;51.996;5.180;2023-07-29T12:42:58;25.10;68.80
70456;DHT22;57916;51.996;5.180;2023-07-29T12:45:25;25.20;69.00
70456;DHT22;57916;51.996;5.180;2023-07-29T12:47:56;25.30;67.40
70456;DHT22;57916;51.996;5.180;2023-07-29T12:50:23;25.30;67.90
70456;DHT22;57916;51.996;5.180;2023-07-29T12:52:50;25.40;67.70
70456;DHT22;57916;51.996;5.180;2023-07-29T12:55:17;25.60;68.20
70456;DHT22;57916;51.996;5.180;2023-07-29T12:57:50;25.70;66.30
70456;DHT22;57916;51.996;5.180;2023-07-29T13:00:17;25.80;65.80
70456;DHT22;57916;51.996;5.180;2023-07-29T13:02:44;25.80;64.30
70456;DHT22;57916;51.996;5.180;2023-07-29T13:05:12;25.80;63.50
70456;DHT22;57916;51.996;5.180;2023-07-29T13:07:39;25.70;63.00
70456;DHT22;57916;51.996;5.180;2023-07-29T13:10:08;25.60;63.90
70456;DHT22;57916;51.996;5.180;2023-07-29T13:12:35;25.60;65.00
70456;DHT22;57916;51.996;5.180;2023-07-29T13:15:03;25.60;65.80
70456;DHT22;57916;51.996;5.180;2023-07-29T13:17:30;25.60;66.40
70456;DHT22;57916;51.996;5.180;2023-07-29T13:19:57;25.70;65.20
70456;DHT22;57916;51.996;5.180;2023-07-29T13:22:24;25.80;64.80
70456;DHT22;57916;51.996;5.180;2023-07-29T13:24:51;25.80;62.80
70456;DHT22;57916;51.996;5.180;2023-07-29T13:27:18;25.70;63.30
70456;DHT22;57916;51.996;5.180;2023-07-29T13:29:45;25.80;64.10
70456;DHT22;57916;51.996;5.180;2023-07-29T13:32:13;25.90;64.10
70456;DHT22;57916;51.996;5.180;2023-07-29T13:34:40;26.00;63.00
70456;DHT22;57916;51.996;5.180;2023-07-29T13:37:08;26.10;62.00
70456;DHT22;57916;51.996;5.180;2023-07-29T13:39:35;26.00;61.70
70456;DHT22;57916;51.996;5.180;2023-07-29T13:42:02;26.10;61.70
70456;DHT22;57916;51.996;5.180;2023-07-29T13:44:29;26.10;63.30
70456;DHT22;57916;51.996;5.180;2023-07-29T13:46:57;26.20;62.40
70456;DHT22;57916;51.996;5.180;2023-07-29T13:49:23;26.30;62.00
70456;DHT22;57916;51.996;5.180;2023-07-29T13:51:51;26.40;60.80
70456;DHT22;57916;51.996;5.180;2023-07-29T13:54:18;26.30;60.40
70456;DHT22;57916;51.996;5.180;2023-07-29T13:56:45;26.30;60.40
70456;DHT22;57916;51.996;5.180;2023-07-29T13:59:12;26.30;62.30
70456;DHT22;57916;51.996;5.180;2023-07-29T14:01:39;26.30;60.70
70456;DHT22;57916;51.996;5.180;2023-07-29T14:04:06;26.20;61.20
70456;DHT22;57916;51.996;5.180;2023-07-29T14:06:33;26.30;60.40
70456;DHT22;57916;51.996;5.180;2023-07-29T14:09:12;26.20;60.40
70456;DHT22;57916;51.996;5.180;2023-07-29T14:11:40;26.20;60.70
70456;DHT22;57916;51.996;5.180;2023-07-29T14:14:08;26.30;61.10
70456;DHT22;57916;51.996;5.180;2023-07-29T14:16:35;26.20;60.40
70456;DHT22;57916;51.996;5.180;2023-07-29T14:19:03;26.20;60.80
70456;DHT22;57916;51.996;5.180;2023-07-29T14:21:30;26.30;60.40
70456;DHT22;57916;51.996;5.180;2023-07-29T14:23:57;26.30;60.20
70456;DHT22;57916;51.996;5.180;2023-07-29T14:26:24;26.40;59.90
70456;DHT22;57916;51.996;5.180;2023-07-29T14:28:51;26.40;58.70
70456;DHT22;57916;51.996;5.180;2023-07-29T14:31:18;26.40;59.00
70456;DHT22;57916;51.996;5.180;2023-07-29T14:33:45;26.40;57.00
70456;DHT22;57916;51.996;5.180;2023-07-29T14:36:12;26.40;56.50
70456;DHT22;57916;51.996;5.180;2023-07-29T14:38:40;26.30;56.80
70456;DHT22;57916;51.996;5.180;2023-07-29T14:41:07;26.30;57.80
70456;DHT22;57916;51.996;5.180;2023-07-29T14:43:35;26.30;57.50
70456;DHT22;57916;51.996;5.180;2023-07-29T14:46:02;26.30;57.50
70456;DHT22;57916;51.996;5.180;2023-07-29T14:48:29;26.30;56.90
70456;DHT22;57916;51.996;5.180;2023-07-29T14:51:00;26.20;57.20
70456;DHT22;57916;51.996;5.180;2023-07-29T14:53:27;26.20;56.60
70456;DHT22;57916;51.996;5.180;2023-07-29T14:55:54;26.20;57.00
70456;DHT22;57916;51.996;5.180;2023-07-29T14:58:22;26.20;56.90
70456;DHT22;57916;51.996;5.180;2023-07-29T15:00:52;26.30;56.50
70456;DHT22;57916;51.996;5.180;2023-07-29T15:03:19;26.30;56.30
70456;DHT22;57916;51.996;5.180;2023-07-29T15:05:46;26.30;56.30
70456;DHT22;57916;51.996;5.180;2023-07-29T15:08:13;26.30;56.50
70456;DHT22;57916;51.996;5.180;2023-07-29T15:10:40;26.30;56.60
70456;DHT22;57916;51.996;5.180;2023-07-29T15:13:07;26.30;55.60
70456;DHT22;57916;51.996;5.180;2023-07-29T15:15:34;26.30;55.70
70456;DHT22;57916;51.996;5.180;2023-07-29T15:18:02;26.20;56.10
70456;DHT22;57916;51.996;5.180;2023-07-29T15:20:29;26.20;55.80
70456;DHT22;57916;51.996;5.180;2023-07-29T15:22:56;26.10;56.00
70456;DHT22;57916;51.996;5.180;2023-07-29T15:25:24;26.10;55.80
70456;DHT22;57916;51.996;5.180;2023-07-29T15:27:51;26.00;56.60
70456;DHT22;57916;51.996;5.180;2023-07-29T15:30:18;25.90;61.00
70456;DHT22;57916;51.996;5.180;2023-07-29T15:32:45;25.60;63.10
70456;DHT22;57916;51.996;5.180;2023-07-29T15:35:12;25.30;64.10
70456;DHT22;57916;51.996;5.180;2023-07-29T15:37:39;25.00;65.20
70456;DHT22;57916;51.996;5.180;2023-07-29T15:40:07;24.80;66.50
70456;DHT22;57916;51.996;5.180;2023-07-29T15:42:34;24.60;68.10
70456;DHT22;57916;51.996;5.180;2023-07-29T15:45:02;24.50;69.00
70456;DHT22;57916;51.996;5.180;2023-07-29T15:47:29;24.40;70.00